createdAt,value
2017-04-07T00:00:20.237Z,8.77
2017-04-07T00:01:19.324Z,9.40
2017-04-07T00:02:18.411Z,10.72
2017-04-07T00:03:17.516Z,10.73
2017-04-07T00:04:16.605Z,9.70
2017-04-07T00:05:15.700Z,7.05
2017-04-07T00:06:14.787Z,6.35
2017-04-07T00:07:13.883Z,13.68
2017-04-07T00:08:12.987Z,8.87
2017-04-07T00:09:12.832Z,14.33
2017-04-07T00:10:11.972Z,8.07
2017-04-07T00:11:11.812Z,8.33
2017-04-07T00:12:11.024Z,9.95
2017-04-07T00:13:10.139Z,6.92
2017-04-07T00:14:09.963Z,6.87
2017-04-07T00:15:09.052Z,7.10
2017-04-07T00:16:08.143Z,9.23
2017-04-07T00:17:07.245Z,11.62
2017-04-07T00:18:06.351Z,14.45
2017-04-07T00:19:05.515Z,11.70
2017-04-07T00:20:04.612Z,12.48
2017-04-07T00:21:03.711Z,8.95
2017-04-07T00:22:02.804Z,7.42
2017-04-07T00:23:01.936Z,7.37
2017-04-07T00:24:01.066Z,8.73
2017-04-07T00:25:00.163Z,12.57
2017-04-07T00:25:59.252Z,8.13
2017-04-07T00:26:58.338Z,10.23
2017-04-07T00:27:57.445Z,9.07
2017-04-07T00:28:57.283Z,8.83
2017-04-07T00:29:56.371Z,6.13
2017-04-07T00:30:55.459Z,8.45
2017-04-07T00:31:54.548Z,7.23
2017-04-07T00:32:53.668Z,8.35
2017-04-07T00:33:52.839Z,10.68
2017-04-07T00:34:51.927Z,11.22
2017-04-07T00:35:51.012Z,8.08
2017-04-07T00:36:50.108Z,7.02
2017-04-07T00:37:49.281Z,7.92
2017-04-07T00:38:48.399Z,10.27
2017-04-07T00:39:48.240Z,6.08
2017-04-07T00:40:47.368Z,7.00
2017-04-07T00:41:46.524Z,8.27
2017-04-07T00:42:45.639Z,7.68
2017-04-07T00:43:44.784Z,10.27
2017-04-07T00:44:43.879Z,8.80
2017-04-07T00:45:43.088Z,10.90
2017-04-07T00:46:42.204Z,9.22
2017-04-07T00:47:42.040Z,9.63
2017-04-07T00:48:41.135Z,8.62
2017-04-07T00:49:40.241Z,8.03
2017-04-07T00:50:39.331Z,10.42
2017-04-07T00:51:38.436Z,11.13
2017-04-07T00:52:37.558Z,13.95
2017-04-07T00:53:36.652Z,10.08
2017-04-07T00:54:35.774Z,8.88
2017-04-07T00:55:34.867Z,14.50
2017-04-07T00:56:34.047Z,8.25
2017-04-07T00:57:33.132Z,7.22
2017-04-07T00:58:32.248Z,7.78
2017-04-07T00:59:32.120Z,10.73
2017-04-07T01:00:31.341Z,13.58
2017-04-07T01:01:31.176Z,10.45
2017-04-07T01:02:30.276Z,10.98
2017-04-07T01:03:29.360Z,8.02
2017-04-07T01:04:28.443Z,13.13
2017-04-07T01:05:27.584Z,9.58
2017-04-07T01:06:27.428Z,9.03
2017-04-07T01:07:26.516Z,7.65
2017-04-07T01:08:25.668Z,9.90
2017-04-07T01:09:25.503Z,10.60
2017-04-07T01:10:24.628Z,9.87
2017-04-07T01:11:23.732Z,13.13
2017-04-07T01:12:23.583Z,10.05
2017-04-07T01:13:22.689Z,12.62
2017-04-07T01:14:21.807Z,8.82
2017-04-07T01:15:21.664Z,12.23
2017-04-07T01:16:21.174Z,11.87
2017-04-07T01:17:20.308Z,14.48
2017-04-07T01:18:20.142Z,12.83
2017-04-07T01:19:19.248Z,12.57
2017-04-07T01:20:18.351Z,11.60
2017-04-07T01:21:17.524Z,11.18
2017-04-07T01:22:16.623Z,17.60
2017-04-07T01:23:15.732Z,10.43
2017-04-07T01:24:15.564Z,9.05
2017-04-07T01:25:14.707Z,11.23
2017-04-07T01:26:14.556Z,12.70
2017-04-07T01:27:13.709Z,10.87
2017-04-07T01:28:13.542Z,11.53
2017-04-07T01:29:12.647Z,9.60
2017-04-07T01:30:11.744Z,9.68
2017-04-07T01:31:10.887Z,13.57
2017-04-07T01:32:09.992Z,14.10
2017-04-07T01:33:09.204Z,11.83
2017-04-07T01:34:08.295Z,8.93
2017-04-07T01:35:07.403Z,14.37
2017-04-07T01:36:07.247Z,11.65
2017-04-07T01:37:06.348Z,14.55
2017-04-07T01:38:05.447Z,13.02
2017-04-07T01:39:04.888Z,12.17
2017-04-07T01:40:03.982Z,11.40
2017-04-07T01:41:03.106Z,16.70
2017-04-07T01:42:02.204Z,11.60
2017-04-07T01:43:01.356Z,14.60
2017-04-07T01:44:00.468Z,9.62
2017-04-07T01:44:59.596Z,11.08
2017-04-07T01:45:59.471Z,10.97
2017-04-07T01:46:59.015Z,11.83
2017-04-07T01:47:58.116Z,12.90
2017-04-07T01:48:57.255Z,11.95
2017-04-07T01:49:57.099Z,9.60
2017-04-07T01:50:56.199Z,10.40
2017-04-07T01:51:55.315Z,11.20
2017-04-07T01:52:54.417Z,13.95
2017-04-07T01:53:54.264Z,16.78
2017-04-07T01:54:53.356Z,16.07
2017-04-07T01:55:52.444Z,10.57
2017-04-07T01:56:51.584Z,13.83
2017-04-07T01:57:51.419Z,14.75
2017-04-07T01:58:50.515Z,15.20
2017-04-07T01:59:49.599Z,11.82
2017-04-07T02:00:48.684Z,8.95
2017-04-07T02:01:47.783Z,11.80
2017-04-07T02:02:46.924Z,12.65
2017-04-07T02:03:46.107Z,13.62
2017-04-07T02:04:45.951Z,14.03
2017-04-07T02:05:45.087Z,14.00
2017-04-07T02:06:44.940Z,14.22
2017-04-07T02:07:44.064Z,12.80
2017-04-07T02:08:43.479Z,12.00
2017-04-07T02:09:43.320Z,17.28
2017-04-07T02:10:42.523Z,16.67
2017-04-07T02:11:41.620Z,12.52
2017-04-07T02:12:40.741Z,11.20
2017-04-07T02:13:39.911Z,14.87
2017-04-07T02:14:39.743Z,14.47
2017-04-07T02:15:38.879Z,13.92
2017-04-07T02:16:37.999Z,12.60
2017-04-07T02:17:37.872Z,22.52
2017-04-07T02:18:37.023Z,14.33
2017-04-07T02:19:36.130Z,14.40
2017-04-07T02:20:35.247Z,15.65
2017-04-07T02:21:35.099Z,15.00
2017-04-07T02:22:34.235Z,14.23
2017-04-07T02:23:33.347Z,11.87
2017-04-07T02:24:32.476Z,12.97
2017-04-07T02:25:31.584Z,16.67
2017-04-07T02:26:30.783Z,15.65
2017-04-07T02:27:30.422Z,15.72
2017-04-07T02:28:29.547Z,16.92
2017-04-07T02:29:28.668Z,14.07
2017-04-07T02:30:28.518Z,14.45
2017-04-07T02:31:27.632Z,16.63
2017-04-07T02:32:27.512Z,14.72
2017-04-07T02:33:26.639Z,12.23
2017-04-07T02:34:26.487Z,17.08
2017-04-07T02:35:26.236Z,14.88
2017-04-07T02:36:26.105Z,17.78
2017-04-07T02:37:25.212Z,19.42
2017-04-07T02:38:24.651Z,15.67
2017-04-07T02:39:23.764Z,19.80
2017-04-07T02:40:22.868Z,19.75
2017-04-07T02:41:21.984Z,18.48
2017-04-07T02:42:21.844Z,20.22
2017-04-07T02:43:20.947Z,16.22
2017-04-07T02:44:20.071Z,13.57
2017-04-07T02:45:19.203Z,15.77
2017-04-07T02:46:19.143Z,16.08
2017-04-07T02:47:19.096Z,17.12
2017-04-07T02:48:18.203Z,17.63
2017-04-07T02:49:17.339Z,16.82
2017-04-07T02:50:16.448Z,20.78
2017-04-07T02:51:15.592Z,18.07
2017-04-07T02:52:15.443Z,16.95
2017-04-07T02:53:14.592Z,13.38
2017-04-07T02:54:14.461Z,16.62
2017-04-07T02:55:13.575Z,13.85
2017-04-07T02:56:13.420Z,15.65
2017-04-07T02:57:12.625Z,15.90
2017-04-07T02:58:11.744Z,14.05
2017-04-07T02:59:11.716Z,13.48
2017-04-07T03:00:10.838Z,15.13
2017-04-07T03:01:10.735Z,16.67
2017-04-07T03:02:10.592Z,14.48
2017-04-07T03:03:09.699Z,18.13
2017-04-07T03:04:08.835Z,16.83
2017-04-07T03:05:08.044Z,18.65
2017-04-07T03:06:07.156Z,16.15
2017-04-07T03:07:06.263Z,13.67
2017-04-07T03:08:05.381Z,15.80
2017-04-07T03:09:04.959Z,17.98
2017-04-07T03:10:04.829Z,17.02
2017-04-07T03:11:03.935Z,15.48
2017-04-07T03:12:03.363Z,19.28
2017-04-07T03:13:02.467Z,13.43
2017-04-07T03:14:01.586Z,14.78
2017-04-07T03:15:00.716Z,17.18
2017-04-07T03:15:59.827Z,16.92
2017-04-07T03:16:58.935Z,15.13
2017-04-07T03:17:58.043Z,17.12
2017-04-07T03:18:57.467Z,16.87
2017-04-07T03:19:56.652Z,17.43
2017-04-07T03:20:55.801Z,17.30
2017-04-07T03:21:54.972Z,19.65
2017-04-07T03:22:54.082Z,16.28
2017-04-07T03:23:53.494Z,22.15
2017-04-07T03:24:53.411Z,16.03
2017-04-07T03:25:52.552Z,13.62
2017-04-07T03:26:51.659Z,20.47
2017-04-07T03:27:51.520Z,17.98
2017-04-07T03:28:50.643Z,16.40
2017-04-07T03:29:50.503Z,21.73
2017-04-07T03:30:49.632Z,17.82
2017-04-07T03:31:49.492Z,17.82
2017-04-07T03:32:48.607Z,16.97
2017-04-07T03:33:47.723Z,17.45
2017-04-07T03:34:47.576Z,16.58
2017-04-07T03:35:46.699Z,20.88
2017-04-07T03:36:46.555Z,20.55
2017-04-07T03:37:45.663Z,15.83
2017-04-07T03:38:44.771Z,17.00
2017-04-07T03:39:44.620Z,18.73
2017-04-07T03:40:43.760Z,14.53
2017-04-07T03:41:43.615Z,20.00
2017-04-07T03:42:42.726Z,15.43
2017-04-07T03:43:41.835Z,16.20
2017-04-07T03:44:41.700Z,15.38
2017-04-07T03:45:40.832Z,17.87
2017-04-07T03:46:40.812Z,16.35
2017-04-07T03:47:39.951Z,15.20
2017-04-07T03:48:39.083Z,18.85
2017-04-07T03:49:38.294Z,21.02
2017-04-07T03:50:38.148Z,18.43
2017-04-07T03:51:37.307Z,19.95
2017-04-07T03:52:36.415Z,16.78
2017-04-07T03:53:35.520Z,18.15
2017-04-07T03:54:34.635Z,17.82
2017-04-07T03:55:34.491Z,19.73
2017-04-07T03:56:33.623Z,15.62
2017-04-07T03:57:33.475Z,16.40
2017-04-07T03:58:32.592Z,17.32
2017-04-07T03:59:31.712Z,19.03
2017-04-07T04:00:31.574Z,21.12
2017-04-07T04:01:30.743Z,18.37
2017-04-07T04:02:29.859Z,30.55
2017-04-07T04:03:28.992Z,18.47
2017-04-07T04:04:28.222Z,18.22
2017-04-07T04:05:27.409Z,25.22
2017-04-07T04:06:26.551Z,19.83
2017-04-07T04:07:25.676Z,21.23
2017-04-07T04:08:24.783Z,19.78
2017-04-07T04:09:23.897Z,17.00
2017-04-07T04:10:23.753Z,19.90
2017-04-07T04:11:22.867Z,18.47
2017-04-07T04:12:22.307Z,19.07
2017-04-07T04:13:21.418Z,19.23
2017-04-07T04:14:20.536Z,22.78
2017-04-07T04:15:20.392Z,25.23
2017-04-07T04:16:19.504Z,18.98
2017-04-07T04:17:18.625Z,17.52
2017-04-07T04:18:18.482Z,19.70
2017-04-07T04:19:17.583Z,19.62
2017-04-07T04:20:16.720Z,25.35
2017-04-07T04:21:15.872Z,22.97
2017-04-07T04:22:15.764Z,19.33
2017-04-07T04:23:14.907Z,26.08
2017-04-07T04:24:14.027Z,22.07
2017-04-07T04:25:13.143Z,20.95
2017-04-07T04:26:13.004Z,19.02
2017-04-07T04:27:12.194Z,22.93
2017-04-07T04:28:11.319Z,20.37
2017-04-07T04:29:11.287Z,22.70
2017-04-07T04:30:10.424Z,19.67
2017-04-07T04:31:09.532Z,18.85
2017-04-07T04:32:08.644Z,21.60
2017-04-07T04:33:07.779Z,19.53
2017-04-07T04:34:07.631Z,19.57
2017-04-07T04:35:06.743Z,25.43
2017-04-07T04:36:06.167Z,23.68
2017-04-07T04:37:05.279Z,22.30
2017-04-07T04:38:04.412Z,22.68
2017-04-07T04:39:05.244Z,20.52
2017-04-07T04:40:05.092Z,19.62
2017-04-07T04:41:04.229Z,20.87
2017-04-07T04:42:04.098Z,21.30
2017-04-07T04:43:03.227Z,22.30
2017-04-07T04:44:03.089Z,22.17
2017-04-07T04:45:02.208Z,23.08
2017-04-07T04:46:02.056Z,20.80
2017-04-07T04:47:01.177Z,20.83
2017-04-07T04:48:00.292Z,20.60
2017-04-07T04:49:00.156Z,27.93
2017-04-07T04:49:59.267Z,23.65
2017-04-07T04:50:59.121Z,18.73
2017-04-07T04:51:58.239Z,20.33
2017-04-07T04:52:57.355Z,20.82
2017-04-07T04:53:57.196Z,20.38
2017-04-07T04:54:56.287Z,20.67
2017-04-07T04:55:55.407Z,16.95
2017-04-07T04:56:54.504Z,18.65
2017-04-07T04:57:54.383Z,20.83
2017-04-07T04:58:53.484Z,23.32
2017-04-07T04:59:52.584Z,20.17
2017-04-07T05:00:51.987Z,21.58
2017-04-07T05:01:51.823Z,21.85
2017-04-07T05:02:50.915Z,19.87
2017-04-07T05:03:50.036Z,20.05
2017-04-07T05:04:49.127Z,19.78
2017-04-07T05:05:48.983Z,20.12
2017-04-07T05:06:48.135Z,21.57
2017-04-07T05:07:47.979Z,19.27
2017-04-07T05:08:47.115Z,18.10
2017-04-07T05:09:46.951Z,18.00
2017-04-07T05:10:46.051Z,20.80
2017-04-07T05:11:45.164Z,25.37
2017-04-07T05:12:44.260Z,18.37
2017-04-07T05:13:43.371Z,20.57
2017-04-07T05:14:42.491Z,24.30
2017-04-07T05:15:41.596Z,20.37
2017-04-07T05:16:40.716Z,18.53
2017-04-07T05:17:40.551Z,19.33
2017-04-07T05:18:39.720Z,21.02
2017-04-07T05:19:38.824Z,20.18
2017-04-07T05:20:38.042Z,15.92
2017-04-07T05:21:37.132Z,19.42
2017-04-07T05:22:36.223Z,22.63
2017-04-07T05:23:35.584Z,20.60
2017-04-07T05:24:34.668Z,25.47
2017-04-07T05:25:33.759Z,20.37
2017-04-07T05:26:32.858Z,18.88
2017-04-07T05:27:31.951Z,15.53
2017-04-07T05:28:32.039Z,18.28
2017-04-07T05:29:31.155Z,16.77
2017-04-07T05:30:31.007Z,17.32
2017-04-07T05:31:30.107Z,25.87
2017-04-07T05:32:29.199Z,32.30
2017-04-07T05:33:28.292Z,22.13
2017-04-07T05:34:27.419Z,17.93
2017-04-07T05:35:27.421Z,23.23
2017-04-07T05:36:27.255Z,29.13
2017-04-07T05:37:55.187Z,24.48
2017-04-07T05:39:04.205Z,26.83
2017-04-07T05:40:10.460Z,21.57
2017-04-07T05:41:23.111Z,26.50
2017-04-07T05:42:32.803Z,25.13
2017-04-07T05:43:36.593Z,20.67
2017-04-07T05:44:36.428Z,27.22
2017-04-07T05:45:35.547Z,23.48
2017-04-07T05:46:34.644Z,28.62
2017-04-07T05:47:33.819Z,23.28
2017-04-07T05:48:32.932Z,18.23
2017-04-07T05:49:32.327Z,26.65
2017-04-07T05:50:32.194Z,18.90
2017-04-07T05:51:31.299Z,25.38
2017-04-07T05:52:30.407Z,22.48
2017-04-07T05:53:30.315Z,21.70
2017-04-07T05:54:30.177Z,31.65
2017-04-07T05:55:29.315Z,23.50
2017-04-07T05:56:28.449Z,16.27
2017-04-07T05:57:27.637Z,14.98
2017-04-07T05:58:26.735Z,18.32
2017-04-07T05:59:25.841Z,16.00
2017-04-07T06:00:25.702Z,19.17
2017-04-07T06:01:24.820Z,18.35
2017-04-07T06:02:24.667Z,19.00
2017-04-07T06:03:23.769Z,12.82
2017-04-07T06:04:22.865Z,15.92
2017-04-07T06:05:21.995Z,22.97
2017-04-07T06:06:21.852Z,20.48
2017-04-07T06:07:20.944Z,15.23
2017-04-07T06:08:20.041Z,20.88
2017-04-07T06:09:19.447Z,31.67
2017-04-07T06:10:18.871Z,23.20
2017-04-07T06:11:17.996Z,15.72
2017-04-07T06:12:17.119Z,18.67
2017-04-07T06:13:16.985Z,19.53
2017-04-07T06:14:16.084Z,17.32
2017-04-07T06:15:15.731Z,25.90
2017-04-07T06:16:14.875Z,19.68
2017-04-07T06:17:13.976Z,15.83
2017-04-07T06:18:13.816Z,19.20
2017-04-07T06:19:12.951Z,22.22
2017-04-07T06:20:12.064Z,17.27
2017-04-07T06:21:11.988Z,18.65
2017-04-07T06:22:11.087Z,14.17
2017-04-07T06:23:10.181Z,14.60
2017-04-07T06:24:09.276Z,21.83
2017-04-07T06:25:08.372Z,21.20
2017-04-07T06:26:07.505Z,17.48
2017-04-07T06:27:07.354Z,17.03
2017-04-07T06:28:06.459Z,19.97
2017-04-07T06:29:05.556Z,18.13
2017-04-07T06:30:05.391Z,17.92
2017-04-07T06:31:04.504Z,21.30
2017-04-07T06:32:03.616Z,17.63
2017-04-07T06:33:02.716Z,17.42
2017-04-07T06:34:02.563Z,21.62
2017-04-07T06:35:01.660Z,26.57
2017-04-07T06:36:01.039Z,24.68
2017-04-07T06:37:00.138Z,25.50
2017-04-07T06:37:59.339Z,24.10
2017-04-07T06:38:58.443Z,29.63
2017-04-07T06:39:57.552Z,35.13
2017-04-07T06:40:57.397Z,27.60
2017-04-07T06:41:56.512Z,33.52
2017-04-07T06:42:55.612Z,33.13
2017-04-07T06:43:55.447Z,30.35
2017-04-07T06:44:54.552Z,29.38
2017-04-07T06:45:53.652Z,29.13
2017-04-07T06:46:52.788Z,19.00
2017-04-07T06:47:52.194Z,32.65
2017-04-07T06:48:51.375Z,35.37
2017-04-07T06:49:50.504Z,29.58
2017-04-07T06:50:49.640Z,30.93
2017-04-07T06:51:49.380Z,25.03
2017-04-07T06:52:48.497Z,20.10
2017-04-07T06:53:47.631Z,21.28
2017-04-07T06:54:46.855Z,34.13
2017-04-07T06:55:46.712Z,31.67
2017-04-07T06:56:45.871Z,30.67
2017-04-07T06:57:45.338Z,33.43
2017-04-07T06:58:44.445Z,38.47
2017-04-07T06:59:43.555Z,30.08
2017-04-07T07:00:43.408Z,31.42
2017-04-07T07:01:42.779Z,33.20
2017-04-07T07:02:49.087Z,37.23
2017-04-07T07:03:48.976Z,35.60
2017-04-07T07:04:48.388Z,38.17
2017-04-07T07:05:48.520Z,32.07
2017-04-07T07:06:47.655Z,31.17
2017-04-07T07:07:46.775Z,33.27
2017-04-07T07:08:46.639Z,35.07
2017-04-07T07:09:45.747Z,37.78
2017-04-07T07:10:45.163Z,34.33
2017-04-07T07:11:44.271Z,25.33
2017-04-07T07:12:43.411Z,30.37
2017-04-07T07:13:42.515Z,31.92
2017-04-07T07:14:42.360Z,27.07
2017-04-07T07:15:41.507Z,38.25
2017-04-07T07:16:41.367Z,35.60
2017-04-07T07:17:40.492Z,35.87
2017-04-07T07:18:40.344Z,34.92
2017-04-07T07:19:39.459Z,36.20
2017-04-07T07:20:38.568Z,28.05
2017-04-07T07:21:38.416Z,22.12
2017-04-07T07:22:37.551Z,25.35
2017-04-07T07:23:37.407Z,36.88
2017-04-07T07:24:36.519Z,33.52
2017-04-07T07:25:35.647Z,34.10
2017-04-07T07:26:34.791Z,35.50
2017-04-07T07:27:33.908Z,28.78
2017-04-07T07:28:33.780Z,29.90
2017-04-07T07:29:32.887Z,35.07
2017-04-07T07:30:32.727Z,30.15
2017-04-07T07:31:31.844Z,35.90
2017-04-07T07:32:31.059Z,29.47
2017-04-07T07:33:30.948Z,30.63
2017-04-07T07:34:30.044Z,35.65
2017-04-07T07:35:29.879Z,26.93
2017-04-07T07:36:29.625Z,34.13
2017-04-07T07:37:28.809Z,31.78
2017-04-07T07:38:27.900Z,36.05
2017-04-07T07:39:27.027Z,34.93
2017-04-07T07:40:26.864Z,32.13
2017-04-07T07:41:25.967Z,32.53
2017-04-07T07:42:25.067Z,34.48
2017-04-07T07:43:24.180Z,39.85
2017-04-07T07:44:24.042Z,33.75
2017-04-07T07:45:23.139Z,33.37
2017-04-07T07:46:22.232Z,36.17
2017-04-07T07:47:21.348Z,35.58
2017-04-07T07:48:20.448Z,38.00
2017-04-07T07:49:19.808Z,32.22
2017-04-07T07:50:19.644Z,31.23
2017-04-07T07:51:18.743Z,36.12
2017-04-07T07:52:17.848Z,31.15
2017-04-07T07:53:16.943Z,31.77
2017-04-07T07:54:16.040Z,34.97
2017-04-07T07:55:15.168Z,31.65
2017-04-07T07:56:14.290Z,35.72
2017-04-07T07:57:13.388Z,33.23
2017-04-07T07:58:12.480Z,38.15
2017-04-07T07:59:11.580Z,31.18
2017-04-07T08:00:11.516Z,29.83
2017-04-07T08:01:10.623Z,33.12
2017-04-07T08:02:09.728Z,32.18
2017-04-07T08:03:08.811Z,37.13
2017-04-07T08:04:07.907Z,36.00
2017-04-07T08:05:07.362Z,30.30
2017-04-07T08:06:06.451Z,33.55
2017-04-07T08:07:05.536Z,32.32
2017-04-07T08:08:04.627Z,38.77
2017-04-07T08:09:04.995Z,30.25
2017-04-07T08:10:04.836Z,31.32
2017-04-07T08:11:03.981Z,30.57
2017-04-07T08:12:03.827Z,33.37
2017-04-07T08:13:02.920Z,32.57
2017-04-07T08:14:02.056Z,32.43
2017-04-07T08:15:01.895Z,27.48
2017-04-07T08:16:01.009Z,36.62
2017-04-07T08:17:00.103Z,34.33
2017-04-07T08:17:59.196Z,33.73
2017-04-07T08:18:58.296Z,31.03
2017-04-07T08:19:58.135Z,29.78
2017-04-07T08:20:57.252Z,30.85
2017-04-07T08:21:56.348Z,35.10
2017-04-07T08:22:55.459Z,34.53
2017-04-07T08:23:55.304Z,32.80
2017-04-07T08:24:54.391Z,32.22
2017-04-07T08:25:53.772Z,28.80
2017-04-07T08:26:52.864Z,33.43
2017-04-07T08:27:51.960Z,34.78
2017-04-07T08:28:51.058Z,38.70
2017-04-07T08:29:50.161Z,31.98
2017-04-07T08:30:49.252Z,30.17
2017-04-07T08:31:48.372Z,30.62
2017-04-07T08:32:47.471Z,30.40
2017-04-07T08:33:46.572Z,26.37
2017-04-07T08:34:45.676Z,28.05
2017-04-07T08:35:44.772Z,32.68
2017-04-07T08:36:43.876Z,34.50
2017-04-07T08:37:43.723Z,29.50
2017-04-07T08:38:42.820Z,28.70
2017-04-07T08:39:41.963Z,35.70
2017-04-07T08:40:41.816Z,29.52
2017-04-07T08:41:40.964Z,27.07
2017-04-07T08:42:40.071Z,28.02
2017-04-07T08:43:39.159Z,26.65
2017-04-07T08:44:38.408Z,30.93
2017-04-07T08:45:38.304Z,28.97
2017-04-07T08:46:38.148Z,32.37
2017-04-07T08:47:37.303Z,28.22
2017-04-07T08:48:37.156Z,28.93
2017-04-07T08:49:36.279Z,30.65
2017-04-07T08:50:36.146Z,28.05
2017-04-07T08:51:35.280Z,33.55
2017-04-07T08:52:35.715Z,25.58
2017-04-07T08:53:34.838Z,34.75
2017-04-07T08:54:34.738Z,34.67
2017-04-07T08:55:33.916Z,28.27
2017-04-07T08:56:33.028Z,28.13
2017-04-07T08:57:32.159Z,32.28
2017-04-07T08:58:31.391Z,33.53
2017-04-07T08:59:30.509Z,29.83
2017-04-07T09:00:30.436Z,33.95
2017-04-07T09:01:29.552Z,24.68
2017-04-07T09:02:28.908Z,30.77
2017-04-07T09:03:28.019Z,29.55
2017-04-07T09:04:27.129Z,34.13
2017-04-07T09:05:27.119Z,27.73
2017-04-07T09:06:26.324Z,33.22
2017-04-07T09:07:25.455Z,29.53
2017-04-07T09:08:25.312Z,33.82
2017-04-07T09:09:24.419Z,36.65
2017-04-07T09:10:23.835Z,30.37
2017-04-07T09:11:23.702Z,25.03
2017-04-07T09:12:22.816Z,27.47
2017-04-07T09:13:22.692Z,33.43
2017-04-07T09:14:21.807Z,29.40
2017-04-07T09:15:21.717Z,29.73
2017-04-07T09:16:21.631Z,29.00
2017-04-07T09:17:20.747Z,27.22
2017-04-07T09:18:20.019Z,25.70
2017-04-07T09:19:19.138Z,34.23
2017-04-07T09:20:18.256Z,25.77
2017-04-07T09:21:18.108Z,24.95
2017-04-07T09:22:17.252Z,31.47
2017-04-07T09:23:17.132Z,29.98
2017-04-07T09:24:16.252Z,29.68
2017-04-07T09:25:16.106Z,29.43
2017-04-07T09:26:15.215Z,26.83
2017-04-07T09:27:14.623Z,26.08
2017-04-07T09:28:14.500Z,27.60
2017-04-07T09:29:13.935Z,26.68
2017-04-07T09:30:13.100Z,27.80
2017-04-07T09:31:12.966Z,28.45
2017-04-07T09:32:12.085Z,32.88
2017-04-07T09:33:11.956Z,32.97
2017-04-07T09:34:11.083Z,28.82
2017-04-07T09:35:10.988Z,35.52
2017-04-07T09:36:10.854Z,31.18
2017-04-07T09:37:09.974Z,25.72
2017-04-07T09:38:09.900Z,30.88
2017-04-07T09:39:09.063Z,31.42
2017-04-07T09:40:08.978Z,26.70
2017-04-07T09:41:08.840Z,27.20
2017-04-07T09:42:07.980Z,32.73
2017-04-07T09:43:07.123Z,28.03
2017-04-07T09:44:06.242Z,28.38
2017-04-07T09:45:06.104Z,30.12
2017-04-07T09:46:05.230Z,26.82
2017-04-07T09:47:05.193Z,27.27
2017-04-07T09:48:04.381Z,29.32
2017-04-07T09:49:03.488Z,29.72
2017-04-07T09:50:02.594Z,26.48
2017-04-07T09:51:02.436Z,32.77
2017-04-07T09:52:01.540Z,22.93
2017-04-07T09:53:00.667Z,23.45
2017-04-07T09:54:00.508Z,29.00
2017-04-07T09:54:59.608Z,24.32
2017-04-07T09:55:58.716Z,25.88
2017-04-07T09:56:57.818Z,24.10
2017-04-07T09:57:57.659Z,22.92
2017-04-07T09:58:56.780Z,25.80
2017-04-07T09:59:55.885Z,27.70
2017-04-07T10:00:55.723Z,24.28
2017-04-07T10:01:54.832Z,21.57
2017-04-07T10:02:53.931Z,21.83
2017-04-07T10:03:53.057Z,22.12
2017-04-07T10:04:52.996Z,26.17
2017-04-07T10:05:52.092Z,25.22
2017-04-07T10:06:51.199Z,25.23
2017-04-07T10:07:50.295Z,27.80
2017-04-07T10:08:49.423Z,26.97
2017-04-07T10:09:48.654Z,28.20
2017-04-07T10:10:47.752Z,23.35
2017-04-07T10:11:46.858Z,25.02
2017-04-07T10:12:46.832Z,28.70
2017-04-07T10:13:45.939Z,29.13
2017-04-07T10:14:45.814Z,27.20
2017-04-07T10:15:44.912Z,25.95
2017-04-07T10:16:44.013Z,22.07
2017-04-07T10:17:43.414Z,28.40
2017-04-07T10:18:43.251Z,22.72
2017-04-07T10:19:42.360Z,24.50
2017-04-07T10:20:41.483Z,20.83
2017-04-07T10:21:41.328Z,26.97
2017-04-07T10:22:40.480Z,31.43
2017-04-07T10:23:40.335Z,27.08
2017-04-07T10:24:39.440Z,32.47
2017-04-07T10:25:38.575Z,26.55
2017-04-07T10:26:37.684Z,29.67
2017-04-07T10:27:36.795Z,28.43
2017-04-07T10:28:36.430Z,29.27
2017-04-07T10:29:36.272Z,26.58
2017-04-07T10:30:35.392Z,27.07
2017-04-07T10:31:34.495Z,27.92
2017-04-07T10:32:34.344Z,30.12
2017-04-07T10:33:33.487Z,25.92
2017-04-07T10:34:33.376Z,32.12
2017-04-07T10:35:32.507Z,32.32
2017-04-07T10:36:31.604Z,24.77
2017-04-07T10:37:30.735Z,29.73
2017-04-07T10:38:29.939Z,30.17
2017-04-07T10:39:29.784Z,31.13
2017-04-07T10:40:28.992Z,21.05
2017-04-07T10:41:28.112Z,24.33
2017-04-07T10:42:27.960Z,24.82
2017-04-07T10:43:27.062Z,28.35
2017-04-07T10:44:26.160Z,27.85
2017-04-07T10:45:25.275Z,25.55
2017-04-07T10:46:25.139Z,23.63
2017-04-07T10:47:24.262Z,25.05
2017-04-07T10:48:24.111Z,27.18
2017-04-07T10:49:23.209Z,29.95
2017-04-07T10:50:22.311Z,27.87
2017-04-07T10:51:21.436Z,27.67
2017-04-07T10:52:20.539Z,28.23
2017-04-07T10:53:19.645Z,28.92
2017-04-07T10:54:18.748Z,24.20
2017-04-07T10:55:18.856Z,25.95
2017-04-07T10:56:17.981Z,28.15
2017-04-07T10:57:17.831Z,26.97
2017-04-07T10:58:16.939Z,28.63
2017-04-07T10:59:16.043Z,25.65
2017-04-07T11:00:15.972Z,21.75
2017-04-07T11:01:15.096Z,22.52
2017-04-07T11:02:14.199Z,25.02
2017-04-07T11:03:13.304Z,25.92
2017-04-07T11:04:13.160Z,22.08
2017-04-07T11:05:12.276Z,24.58
2017-04-07T11:06:11.396Z,25.10
2017-04-07T11:07:10.515Z,26.97
2017-04-07T11:08:09.722Z,21.70
2017-04-07T11:09:08.819Z,24.53
2017-04-07T11:10:07.924Z,28.45
2017-04-07T11:11:07.775Z,27.47
2017-04-07T11:12:06.896Z,34.60
2017-04-07T11:13:06.001Z,30.88
2017-04-07T11:14:05.848Z,28.98
2017-04-07T11:15:04.959Z,27.70
2017-04-07T11:16:04.051Z,29.18
2017-04-07T11:17:03.183Z,24.48
2017-04-07T11:18:02.287Z,28.53
2017-04-07T11:19:01.508Z,29.50
2017-04-07T11:20:00.604Z,32.93
2017-04-07T11:20:59.718Z,30.75
2017-04-07T11:21:59.572Z,31.73
2017-04-07T11:22:58.680Z,26.95
2017-04-07T11:23:58.083Z,27.12
2017-04-07T11:24:57.928Z,31.68
2017-04-07T11:25:57.024Z,23.78
2017-04-07T11:26:56.160Z,27.98
2017-04-07T11:27:55.996Z,24.33
2017-04-07T11:28:55.100Z,23.95
2017-04-07T11:29:54.200Z,26.22
2017-04-07T11:30:53.303Z,30.17
2017-04-07T11:31:52.509Z,32.20
2017-04-07T11:32:52.370Z,29.13
2017-04-07T11:33:51.508Z,36.32
2017-04-07T11:34:51.355Z,27.70
2017-04-07T11:35:50.452Z,27.43
2017-04-07T11:36:49.638Z,30.72
2017-04-07T11:37:48.759Z,34.35
2017-04-07T11:38:48.604Z,25.27
2017-04-07T11:39:47.728Z,26.12
2017-04-07T11:40:46.828Z,27.93
2017-04-07T11:41:46.701Z,23.53
2017-04-07T11:42:45.801Z,26.53
2017-04-07T11:43:44.928Z,24.48
2017-04-07T11:44:44.031Z,26.05
2017-04-07T11:45:43.131Z,27.53
2017-04-07T11:46:42.263Z,27.35
2017-04-07T11:47:42.136Z,23.87
2017-04-07T11:48:41.272Z,28.85
2017-04-07T11:49:40.387Z,30.25
2017-04-07T11:50:39.504Z,25.35
2017-04-07T11:51:38.907Z,29.35
2017-04-07T11:52:38.331Z,30.87
2017-04-07T11:53:37.469Z,32.97
2017-04-07T11:54:36.592Z,27.25
2017-04-07T11:55:36.554Z,22.62
2017-04-07T11:56:35.687Z,28.07
2017-04-07T11:57:35.547Z,27.52
2017-04-07T11:58:34.680Z,25.93
2017-04-07T11:59:33.796Z,27.07
2017-04-07T12:00:32.991Z,27.53
2017-04-07T12:01:32.132Z,26.52
2017-04-07T12:02:32.441Z,23.83
2017-04-07T12:03:32.340Z,19.17
2017-04-07T12:04:32.196Z,30.67
2017-04-07T12:05:31.307Z,25.92
2017-04-07T12:06:30.424Z,27.18
2017-04-07T12:07:30.281Z,29.13
2017-04-07T12:08:29.400Z,24.05
2017-04-07T12:09:29.290Z,24.23
2017-04-07T12:10:28.404Z,26.67
2017-04-07T12:11:28.263Z,25.30
2017-04-07T12:12:27.380Z,26.20
2017-04-07T12:13:27.245Z,25.65
2017-04-07T12:14:26.388Z,26.80
2017-04-07T12:15:25.503Z,26.85
2017-04-07T12:16:24.608Z,31.37
2017-04-07T12:17:23.725Z,33.93
2017-04-07T12:18:23.583Z,21.43
2017-04-07T12:19:22.716Z,20.97
2017-04-07T12:20:22.585Z,28.08
2017-04-07T12:21:21.716Z,27.87
2017-04-07T12:22:21.576Z,24.33
2017-04-07T12:23:20.696Z,30.33
2017-04-07T12:24:20.580Z,23.78
2017-04-07T12:25:19.696Z,28.90
2017-04-07T12:26:19.568Z,24.47
2017-04-07T12:27:18.686Z,21.52
2017-04-07T12:28:18.550Z,20.40
2017-04-07T12:29:17.684Z,21.53
2017-04-07T12:30:16.800Z,26.03
2017-04-07T12:31:15.917Z,22.53
2017-04-07T12:32:15.319Z,24.60
2017-04-07T12:33:15.180Z,25.95
2017-04-07T12:34:14.569Z,27.22
2017-04-07T12:35:13.691Z,25.58
2017-04-07T12:36:12.803Z,23.25
2017-04-07T12:37:12.761Z,25.98
2017-04-07T12:38:11.872Z,19.82
2017-04-07T12:39:11.291Z,25.73
2017-04-07T12:40:10.436Z,27.62
2017-04-07T12:41:09.555Z,30.28
2017-04-07T12:42:09.460Z,21.95
2017-04-07T12:43:09.340Z,22.55
2017-04-07T12:44:08.549Z,22.92
2017-04-07T12:45:08.424Z,25.63
2017-04-07T12:46:07.640Z,26.77
2017-04-07T12:47:07.532Z,24.37